Time;durP1;ratioP1;P1;durP2;ratioP2;P2;SDS_P1;SDS_P2;PMS_P1;PMS_P2;Temp;Humidity;BMP_temperature;BMP_pressure;BME280_temperature;BME280_humidity;BME280_pressure;Samples;Min_cycle;Max_cycle;Signal;HPM_P1;HPM_P2
2021/06/24 00:01:07;;;;;;;5.97;3.17;;;21.40;69.00;;;;;;5036567;28;20037;-87
2021/06/24 00:03:35;;;;;;;7.97;3.60;;;21.30;68.90;;;;;;5036230;28;20036;-86
2021/06/24 00:06:03;;;;;;;5.68;3.45;;;21.30;69.10;;;;;;5035926;28;20104;-86
2021/06/24 00:08:29;;;;;;;9.93;3.97;;;21.40;69.30;;;;;;5054376;28;20024;-86
2021/06/24 00:10:57;;;;;;;5.07;2.75;;;21.30;69.40;;;;;;5027481;28;20115;-86
2021/06/24 00:13:26;;;;;;;5.85;2.90;;;21.40;68.90;;;;;;5036353;28;20037;-86
2021/06/24 00:15:53;;;;;;;7.75;3.22;;;21.50;68.40;;;;;;5051901;28;20040;-86
2021/06/24 00:18:19;;;;;;;7.25;3.53;;;21.40;68.50;;;;;;5036180;28;20052;-86
2021/06/24 00:20:47;;;;;;;10.48;3.90;;;21.40;68.60;;;;;;5035325;28;20025;-86
2021/06/24 00:23:13;;;;;;;5.97;4.20;;;21.40;69.10;;;;;;5025376;28;20121;-85
2021/06/24 00:25:40;;;;;;;8.68;3.78;;;21.40;69.50;;;;;;5027512;28;20029;-85
2021/06/24 00:28:06;;;;;;;8.38;3.22;;;21.30;69.30;;;;;;5050748;28;20032;-86
2021/06/24 00:30:34;;;;;;;6.53;3.22;;;21.30;69.30;;;;;;5035294;28;20032;-85
2021/06/24 00:33:00;;;;;;;9.90;3.35;;;21.30;69.20;;;;;;5035441;28;20555;-86
2021/06/24 00:35:26;;;;;;;6.97;3.63;;;21.20;69.00;;;;;;5028727;28;20448;-86
2021/06/24 00:37:52;;;;;;;4.47;2.70;;;21.10;69.00;;;;;;5052929;28;20013;-85
2021/06/24 00:40:18;;;;;;;6.68;4.55;;;21.10;69.10;;;;;;5035281;28;20029;-86
2021/06/24 00:42:45;;;;;;;8.55;4.47;;;21.10;69.70;;;;;;5035875;28;20033;-85
2021/06/24 00:45:13;;;;;;;13.52;5.35;;;21.20;69.60;;;;;;5033877;28;20047;-85
2021/06/24 00:47:39;;;;;;;5.57;3.88;;;21.20;70.00;;;;;;5052292;28;20025;-85
2021/06/24 00:50:07;;;;;;;6.68;2.72;;;21.10;69.90;;;;;;5035483;28;20100;-85
2021/06/24 00:52:33;;;;;;;6.72;2.90;;;21.10;68.90;;;;;;5053742;28;20036;-85
2021/06/24 00:54:59;;;;;;;6.55;3.30;;;21.00;69.00;;;;;;5037710;28;20053;-85
2021/06/24 00:57:25;;;;;;;9.15;2.78;;;20.90;69.10;;;;;;5068121;28;20024;-85
2021/06/24 00:59:52;;;;;;;6.35;2.92;;;20.90;69.20;;;;;;5055149;28;20040;-86
2021/06/24 01:02:18;;;;;;;7.53;2.47;;;20.90;69.20;;;;;;5054634;28;20024;-84
2021/06/24 01:04:44;;;;;;;9.55;3.03;;;20.90;69.10;;;;;;5037529;28;20040;-87
2021/06/24 01:07:15;;;;;;;9.35;2.97;;;20.80;68.70;;;;;;5055418;28;20117;-87
2021/06/24 01:09:44;;;;;;;3.40;2.00;;;20.90;68.70;;;;;;5020422;28;20030;-87
2021/06/24 01:12:11;;;;;;;10.85;3.00;;;20.80;68.40;;;;;;5036443;28;20036;-86
2021/06/24 01:14:36;;;;;;;7.32;2.70;;;20.80;68.30;;;;;;5036264;28;20477;-86
2021/06/24 01:17:03;;;;;;;7.78;2.65;;;20.80;68.40;;;;;;5052990;28;20025;-86
2021/06/24 01:19:29;;;;;;;6.55;2.88;;;20.80;68.20;;;;;;5034869;28;20021;-86
2021/06/24 01:21:56;;;;;;;13.18;2.72;;;20.80;68.00;;;;;;5052807;28;20017;-86
2021/06/24 01:24:22;;;;;;;7.03;2.83;;;20.80;67.90;;;;;;5031671;28;20036;-86
2021/06/24 01:26:48;;;;;;;4.25;2.85;;;20.70;68.10;;;;;;5033355;28;20033;-86
2021/06/24 01:29:14;;;;;;;6.38;3.05;;;20.70;68.30;;;;;;5035554;28;20025;-86
2021/06/24 01:31:40;;;;;;;10.15;3.78;;;20.70;68.50;;;;;;5029651;28;20064;-86
2021/06/24 01:34:12;;;;;;;11.77;3.90;;;20.60;68.80;;;;;;5018815;28;20037;-86
2021/06/24 01:36:39;;;;;;;8.02;3.10;;;20.60;69.10;;;;;;5031647;28;20041;-86
2021/06/24 01:39:08;;;;;;;6.10;3.00;;;20.50;69.20;;;;;;5031679;28;20025;-86
2021/06/24 01:41:34;;;;;;;7.75;4.15;;;20.50;69.30;;;;;;5034187;28;20031;-86
2021/06/24 01:44:00;;;;;;;5.55;2.63;;;20.40;69.40;;;;;;5035317;28;20017;-86
2021/06/24 01:46:26;;;;;;;4.97;2.30;;;20.40;69.50;;;;;;5033936;28;20021;-86
2021/06/24 01:48:52;;;;;;;10.20;2.75;;;20.30;69.20;;;;;;5032399;28;20410;-86
2021/06/24 01:51:18;;;;;;;7.22;3.20;;;20.30;69.30;;;;;;5049411;28;20025;-86
2021/06/24 01:53:44;;;;;;;7.35;3.42;;;20.20;69.30;;;;;;5038740;28;20041;-86
2021/06/24 01:56:13;;;;;;;9.55;2.75;;;20.20;69.60;;;;;;5037484;28;20378;-86
2021/06/24 01:58:49;;;;;;;4.97;2.90;;;20.20;69.60;;;;;;5039351;28;20394;-85
2021/06/24 02:53:30;;;;;;;4.68;4.18;;;20.60;70.50;;;;;;5051809;28;20045;-85
2021/06/24 02:55:56;;;;;;;10.13;5.28;;;20.50;70.40;;;;;;5033190;28;20037;-85
2021/06/24 02:58:22;;;;;;;15.05;4.80;;;20.50;70.60;;;;;;5034978;28;20854;-85
2021/06/24 03:00:48;;;;;;;7.05;4.70;;;20.50;70.50;;;;;;5033406;28;20040;-85
2021/06/24 03:03:14;;;;;;;6.88;4.15;;;20.50;70.50;;;;;;5034273;28;20039;-86
2021/06/24 03:05:40;;;;;;;6.32;4.13;;;20.50;70.40;;;;;;5032953;28;20452;-85
2021/06/24 03:08:06;;;;;;;7.60;5.32;;;20.50;70.40;;;;;;5024553;28;20029;-87
2021/06/24 03:10:35;;;;;;;7.78;5.30;;;20.50;70.40;;;;;;5027655;28;20109;-86
2021/06/24 03:13:01;;;;;;;6.57;4.60;;;20.50;71.10;;;;;;5038463;28;20436;-86
2021/06/24 03:15:36;;;;;;;5.70;4.97;;;20.40;70.60;;;;;;5033801;28;20029;-86
2021/06/24 03:18:02;;;;;;;10.35;3.45;;;20.30;71.00;;;;;;5032512;28;20494;-87
2021/06/24 03:20:46;;;;;;;6.10;3.95;;;20.30;71.00;;;;;;5050939;28;20024;-87
2021/06/24 03:23:12;;;;;;;7.88;4.15;;;20.30;71.00;;;;;;5042777;28;20028;-87
2021/06/24 03:25:38;;;;;;;4.90;3.47;;;20.20;71.00;;;;;;5035377;28;20345;-86
2021/06/24 03:28:04;;;;;;;3.72;3.13;;;20.10;71.10;;;;;;5053206;28;20033;-86
2021/06/24 03:30:29;;;;;;;7.07;4.63;;;20.00;71.00;;;;;;5029034;28;20030;-87
2021/06/24 03:32:55;;;;;;;9.90;4.18;;;20.00;71.40;;;;;;5032549;28;20123;-86
2021/06/24 03:35:21;;;;;;;5.88;4.80;;;20.00;71.60;;;;;;5037016;28;20033;-86
2021/06/24 03:37:47;;;;;;;8.27;3.95;;;20.00;71.60;;;;;;5036762;28;20029;-87
2021/06/24 03:40:17;;;;;;;6.90;3.28;;;20.00;71.30;;;;;;5036108;28;20063;-86
2021/06/24 03:42:44;;;;;;;7.55;4.35;;;19.90;70.90;;;;;;5054393;28;20048;-86
2021/06/24 03:45:13;;;;;;;8.63;4.22;;;19.90;71.10;;;;;;5036024;28;20029;-86
2021/06/24 03:47:41;;;;;;;6.03;4.20;;;19.80;71.40;;;;;;5035622;28;20032;-85
2021/06/24 03:50:08;;;;;;;12.23;4.07;;;19.80;71.60;;;;;;5036393;28;20028;-86
2021/06/24 03:52:36;;;;;;;5.40;4.07;;;19.80;71.80;;;;;;5035856;28;20029;-86
2021/06/24 03:55:06;;;;;;;7.20;4.28;;;19.80;71.90;;;;;;5030217;28;20051;-85
2021/06/24 03:57:32;;;;;;;5.75;4.72;;;19.70;71.80;;;;;;5036172;28;20100;-87
2021/06/24 03:59:58;;;;;;;7.78;4.72;;;19.70;72.10;;;;;;5024962;28;20017;-86
2021/06/24 04:02:24;;;;;;;9.85;3.05;;;19.60;72.30;;;;;;5033723;28;20390;-86
2021/06/24 04:04:50;;;;;;;5.82;3.20;;;19.60;72.20;;;;;;5037644;28;20041;-86
2021/06/24 04:07:16;;;;;;;5.38;3.33;;;19.60;71.90;;;;;;5036742;28;20519;-87
2021/06/24 04:09:42;;;;;;;4.30;3.00;;;19.60;71.80;;;;;;5030693;28;20036;-87
2021/06/24 04:12:08;;;;;;;3.85;3.33;;;19.70;71.70;;;;;;5021162;28;20033;-86
2021/06/24 04:14:37;;;;;;;4.78;3.17;;;19.60;71.50;;;;;;5038488;28;20033;-86
2021/06/24 04:17:03;;;;;;;4.65;3.33;;;19.60;71.70;;;;;;5037463;28;20031;-86
2021/06/24 04:19:29;;;;;;;6.55;3.10;;;19.60;71.80;;;;;;5036154;28;20028;-86
2021/06/24 04:21:54;;;;;;;5.75;3.42;;;19.70;71.70;;;;;;5033233;28;20029;-86
2021/06/24 04:24:20;;;;;;;8.05;3.60;;;19.70;71.60;;;;;;5018239;28;20025;-86
2021/06/24 04:26:46;;;;;;;7.75;3.65;;;19.80;71.80;;;;;;5035680;28;20017;-86
2021/06/24 04:29:12;;;;;;;6.30;3.35;;;19.80;71.60;;;;;;5035733;28;20021;-87
2021/06/24 04:31:37;;;;;;;5.32;3.58;;;19.80;71.50;;;;;;5053469;28;20079;-85
2021/06/24 04:34:05;;;;;;;3.95;3.58;;;19.80;71.60;;;;;;5059454;28;20123;-86
2021/06/24 04:36:32;;;;;;;7.72;3.55;;;19.90;71.90;;;;;;5035642;28;20056;-86
2021/06/24 04:38:57;;;;;;;5.38;3.20;;;20.00;71.90;;;;;;5030329;28;20027;-85
2021/06/24 04:41:23;;;;;;;7.55;4.03;;;20.10;71.40;;;;;;5035701;28;20107;-85
2021/06/24 04:43:49;;;;;;;12.13;4.45;;;20.10;71.30;;;;;;5049329;28;20936;-85
2021/06/24 04:46:15;;;;;;;6.28;3.53;;;20.10;71.30;;;;;;5053396;28;20100;-85
2021/06/24 04:48:41;;;;;;;6.65;3.25;;;20.10;71.40;;;;;;5032176;28;20052;-85
2021/06/24 04:51:07;;;;;;;5.30;3.50;;;20.20;71.30;;;;;;5034995;28;20116;-86
2021/06/24 04:53:33;;;;;;;11.40;3.70;;;20.20;71.30;;;;;;5035454;28;20071;-86
2021/06/24 04:55:59;;;;;;;4.90;3.83;;;20.30;71.10;;;;;;5035742;28;20037;-88
2021/06/24 04:58:25;;;;;;;9.52;3.65;;;20.40;71.00;;;;;;5033271;28;20029;-87
2021/06/24 05:00:51;;;;;;;7.53;3.60;;;20.40;71.10;;;;;;5034380;28;20048;-86
2021/06/24 05:03:16;;;;;;;5.65;3.60;;;20.40;70.90;;;;;;5034115;28;20017;-86
2021/06/24 05:05:43;;;;;;;6.28;3.65;;;20.50;70.80;;;;;;5051049;28;20545;-86
2021/06/24 05:08:17;;;;;;;7.38;3.22;;;20.50;70.40;;;;;;5034295;28;20074;-86
2021/06/24 05:10:44;;;;;;;7.32;3.63;;;20.50;70.30;;;;;;5033827;28;20021;-86
2021/06/24 05:13:10;;;;;;;4.50;2.97;;;20.60;70.20;;;;;;5034192;28;20473;-86
2021/06/24 05:15:36;;;;;;;3.53;2.92;;;20.60;70.10;;;;;;5029391;28;20025;-85
2021/06/24 05:18:07;;;;;;;7.47;3.80;;;20.70;70.00;;;;;;5025628;28;20052;-86
2021/06/24 05:20:33;;;;;;;8.05;4.00;;;20.70;70.20;;;;;;5015720;28;20483;-86
2021/06/24 05:22:58;;;;;;;6.53;4.45;;;20.80;70.30;;;;;;5023709;28;20094;-86
2021/06/24 05:25:24;;;;;;;10.02;4.03;;;20.80;70.30;;;;;;5049660;28;20026;-86
2021/06/24 05:27:50;;;;;;;7.95;4.43;;;20.90;70.60;;;;;;5028294;28;20021;-86
2021/06/24 05:30:17;;;;;;;9.85;4.68;;;20.90;70.60;;;;;;5052268;28;20796;-86
2021/06/24 05:32:44;;;;;;;5.60;3.65;;;20.90;70.60;;;;;;5051051;28;20059;-86
2021/06/24 05:35:11;;;;;;;3.65;2.42;;;20.90;70.90;;;;;;5032976;28;20068;-86
2021/06/24 05:37:37;;;;;;;4.78;1.83;;;20.80;69.90;;;;;;5047099;28;20392;-87
2021/06/24 05:40:08;;;;;;;2.35;1.73;;;20.80;69.80;;;;;;5053922;28;20108;-86
2021/06/24 05:42:34;;;;;;;3.30;1.70;;;20.80;69.70;;;;;;5052640;28;20056;-86
2021/06/24 05:45:00;;;;;;;4.60;1.75;;;20.80;70.00;;;;;;5037835;28;20029;-86
2021/06/24 05:47:25;;;;;;;6.75;1.80;;;20.80;70.00;;;;;;5030979;28;20490;-86
2021/06/24 05:49:51;;;;;;;2.70;1.90;;;20.80;69.80;;;;;;5015470;28;20053;-86
2021/06/24 05:52:17;;;;;;;4.53;1.50;;;20.80;69.50;;;;;;5034795;28;20499;-86
2021/06/24 05:54:43;;;;;;;3.72;1.60;;;20.90;69.10;;;;;;5024861;28;20387;-86
2021/06/24 05:57:08;;;;;;;1.70;1.45;;;20.80;69.10;;;;;;5023614;28;20078;-86
2021/06/24 05:59:34;;;;;;;1.73;1.20;;;20.80;68.80;;;;;;5034435;28;20028;-86
2021/06/24 06:02:00;;;;;;;1.35;1.25;;;20.80;68.50;;;;;;5025328;28;20025;-86
2021/06/24 06:04:26;;;;;;;3.22;1.40;;;20.70;68.30;;;;;;5033924;28;20021;-87
2021/06/24 06:06:51;;;;;;;1.35;1.17;;;20.70;68.70;;;;;;5034800;28;20124;-86
2021/06/24 06:09:17;;;;;;;2.40;1.42;;;20.60;69.00;;;;;;5052515;28;20489;-86
2021/06/24 06:11:44;;;;;;;2.58;1.75;;;20.70;69.20;;;;;;5034274;28;20060;-86
2021/06/24 06:14:10;;;;;;;3.28;1.67;;;20.70;69.20;;;;;;5052143;28;20075;-86
2021/06/24 06:16:37;;;;;;;4.38;1.83;;;20.80;69.10;;;;;;5027068;28;20026;-86
2021/06/24 06:19:03;;;;;;;4.85;1.70;;;20.70;69.10;;;;;;5034485;28;20021;-86
2021/06/24 06:21:30;;;;;;;4.50;1.88;;;20.80;69.30;;;;;;5033654;28;20051;-86
2021/06/24 06:23:59;;;;;;;3.10;1.90;;;20.80;69.20;;;;;;5030726;28;20509;-85
2021/06/24 06:26:25;;;;;;;4.97;1.83;;;20.70;69.50;;;;;;5026416;28;20440;-86
2021/06/24 06:28:52;;;;;;;2.42;2.22;;;20.80;69.70;;;;;;5039550;28;20017;-85
2021/06/24 06:31:20;;;;;;;8.35;2.08;;;20.80;69.80;;;;;;5048449;28;20432;-86
2021/06/24 06:33:46;;;;;;;4.95;2.30;;;20.90;69.80;;;;;;5025665;28;20029;-85
2021/06/24 06:36:12;;;;;;;4.75;3.63;;;20.90;69.70;;;;;;5032742;28;20043;-85
2021/06/24 06:38:38;;;;;;;5.18;3.00;;;21.00;69.80;;;;;;5050246;28;20735;-86
2021/06/24 06:41:03;;;;;;;7.30;3.58;;;21.00;69.90;;;;;;5031847;28;20116;-86
2021/06/24 06:43:29;;;;;;;5.68;3.10;;;21.00;69.80;;;;;;5050694;28;20417;-85
2021/06/24 06:45:55;;;;;;;7.63;3.47;;;21.10;69.90;;;;;;5033590;28;20063;-86
2021/06/24 06:48:21;;;;;;;4.28;3.30;;;21.10;70.00;;;;;;5051755;28;20036;-86
2021/06/24 06:50:48;;;;;;;5.50;3.55;;;21.20;70.00;;;;;;5034010;28;20032;-86
2021/06/24 06:53:13;;;;;;;5.10;3.50;;;21.20;69.90;;;;;;5033658;28;20565;-86
2021/06/24 06:55:39;;;;;;;8.02;2.92;;;21.20;69.60;;;;;;5017015;28;20136;-86
2021/06/24 06:58:06;;;;;;;6.28;3.53;;;21.30;69.40;;;;;;5032605;28;20051;-86
2021/06/24 07:00:33;;;;;;;3.63;2.70;;;21.50;69.00;;;;;;5023367;28;20041;-86
2021/06/24 07:02:59;;;;;;;4.60;2.50;;;21.60;68.60;;;;;;5033851;28;20056;-86
2021/06/24 07:05:26;;;;;;;3.08;2.50;;;21.90;68.40;;;;;;5034833;28;20029;-86
2021/06/24 07:07:52;;;;;;;3.65;2.42;;;22.00;68.00;;;;;;5036808;28;20056;-86
2021/06/24 07:10:19;;;;;;;3.20;2.53;;;22.30;67.30;;;;;;5033714;28;20029;-85
2021/06/24 07:12:44;;;;;;;4.53;2.70;;;22.30;67.10;;;;;;5023882;28;20119;-86
2021/06/24 07:15:11;;;;;;;5.70;2.83;;;22.40;67.10;;;;;;5037794;28;20112;-86
2021/06/24 07:17:37;;;;;;;4.70;3.05;;;22.60;66.90;;;;;;5037926;28;20037;-86
2021/06/24 07:20:04;;;;;;;3.78;2.95;;;22.70;66.70;;;;;;5037341;28;20143;-85
2021/06/24 07:22:30;;;;;;;3.42;2.42;;;22.90;66.40;;;;;;5036792;28;20482;-86
2021/06/24 07:24:56;;;;;;;5.72;2.75;;;23.10;65.90;;;;;;5036806;28;20021;-86
2021/06/24 07:27:22;;;;;;;5.82;2.60;;;23.30;65.50;;;;;;5024231;28;20037;-86
2021/06/24 07:29:47;;;;;;;5.55;2.65;;;23.50;65.00;;;;;;5035754;28;20033;-86
2021/06/24 07:32:13;;;;;;;5.13;2.42;;;23.60;64.50;;;;;;5036979;28;20040;-86
2021/06/24 07:34:39;;;;;;;8.20;2.90;;;23.70;64.00;;;;;;5036000;28;20509;-86
2021/06/24 07:37:05;;;;;;;5.38;2.75;;;23.80;63.70;;;;;;5019309;28;20056;-86
2021/06/24 07:39:31;;;;;;;4.65;3.10;;;23.90;63.30;;;;;;5036713;28;20021;-86
2021/06/24 07:41:57;;;;;;;3.40;2.72;;;24.00;63.00;;;;;;5055073;28;20478;-86
2021/06/24 07:44:23;;;;;;;6.35;2.85;;;24.10;62.60;;;;;;5034165;28;20032;-86
2021/06/24 07:46:49;;;;;;;10.00;3.78;;;24.20;61.90;;;;;;5031925;28;20045;-86
2021/06/24 07:49:15;;;;;;;7.63;2.50;;;24.20;61.30;;;;;;5037385;28;20088;-86
2021/06/24 07:51:40;;;;;;;4.95;2.75;;;24.20;62.00;;;;;;5054237;28;20020;-86
2021/06/24 07:54:06;;;;;;;6.35;3.70;;;24.30;61.10;;;;;;5054625;28;20084;-86
2021/06/24 07:56:32;;;;;;;5.25;2.95;;;24.30;60.20;;;;;;5036184;28;20083;-86
2021/06/24 07:58:58;;;;;;;4.40;3.03;;;24.30;60.30;;;;;;5034897;28;20067;-85
2021/06/24 08:01:23;;;;;;;3.55;2.75;;;24.50;59.80;;;;;;5023370;28;20099;-86
2021/06/24 08:03:51;;;;;;;2.92;2.45;;;24.50;59.70;;;;;;5016546;28;20442;-86
2021/06/24 08:06:17;;;;;;;6.22;3.00;;;24.60;59.70;;;;;;5017041;28;20030;-86
2021/06/24 08:08:42;;;;;;;4.47;3.28;;;24.80;59.40;;;;;;5020671;28;20033;-86
2021/06/24 08:11:08;;;;;;;7.07;3.42;;;24.80;58.70;;;;;;5043433;28;20036;-86
2021/06/24 08:13:34;;;;;;;7.13;3.60;;;24.90;58.70;;;;;;5035940;28;20032;-86
2021/06/24 08:16:00;;;;;;;6.22;4.00;;;25.00;58.20;;;;;;5035042;28;20103;-86
2021/06/24 08:18:26;;;;;;;5.70;3.55;;;25.00;58.20;;;;;;5035349;28;20493;-86
2021/06/24 08:20:52;;;;;;;4.03;2.85;;;25.10;58.10;;;;;;5024229;28;20469;-86
2021/06/24 08:23:19;;;;;;;7.00;2.90;;;25.30;58.20;;;;;;5036580;28;20021;-86
2021/06/24 08:25:45;;;;;;;3.45;2.70;;;25.50;57.90;;;;;;5037382;28;20025;-86
2021/06/24 08:28:11;;;;;;;4.85;2.92;;;25.60;57.20;;;;;;5037416;28;20378;-86
2021/06/24 08:30:42;;;;;;;9.35;2.85;;;25.70;57.00;;;;;;5026243;28;20022;-86
2021/06/24 08:33:08;;;;;;;4.93;2.78;;;25.80;57.00;;;;;;5042391;28;20028;-86
2021/06/24 08:35:34;;;;;;;5.57;3.60;;;26.00;56.40;;;;;;5035829;28;20078;-86
2021/06/24 08:37:59;;;;;;;5.75;2.90;;;25.90;55.90;;;;;;5054079;28;20052;-86
2021/06/24 08:40:26;;;;;;;5.45;2.60;;;26.00;55.90;;;;;;5035646;28;20021;-86
2021/06/24 08:42:52;;;;;;;3.92;3.15;;;26.10;55.70;;;;;;5036305;28;20485;-86
2021/06/24 08:45:17;;;;;;;4.82;2.83;;;26.20;55.40;;;;;;5035887;28;20059;-86
2021/06/24 08:47:47;;;;;;;4.07;2.30;;;26.20;55.10;;;;;;5035493;28;20056;-86
2021/06/24 08:50:14;;;;;;;4.90;2.28;;;26.30;54.60;;;;;;5053660;28;20390;-86
2021/06/24 08:52:45;;;;;;;4.35;2.97;;;26.20;54.40;;;;;;5034514;28;20504;-86
2021/06/24 08:55:12;;;;;;;4.68;2.08;;;26.20;54.00;;;;;;5031987;28;20558;-86
2021/06/24 08:57:38;;;;;;;5.20;1.52;;;26.30;54.00;;;;;;5030460;28;20025;-86
2021/06/24 09:00:09;;;;;;;2.60;1.33;;;26.40;53.30;;;;;;5034874;28;20036;-86
2021/06/24 09:02:43;;;;;;;5.45;1.63;;;26.50;52.70;;;;;;5015578;28;20117;-86
2021/06/24 09:05:11;;;;;;;1.92;1.63;;;26.60;51.60;;;;;;5034932;28;20025;-86
2021/06/24 09:07:51;;;;;;;2.25;1.70;;;26.60;51.50;;;;;;5035726;28;20035;-86
2021/06/24 09:10:18;;;;;;;7.57;1.98;;;26.70;51.70;;;;;;5039443;28;20025;-86
2021/06/24 09:13:03;;;;;;;4.60;2.30;;;26.70;51.90;;;;;;5033687;28;20604;-86
2021/06/24 09:15:40;;;;;;;3.83;1.63;;;26.80;51.80;;;;;;5035699;28;20025;-86
2021/06/24 09:18:22;;;;;;;3.42;2.10;;;26.80;51.90;;;;;;5034557;28;20539;-86
2021/06/24 09:20:48;;;;;;;3.90;2.13;;;26.80;51.40;;;;;;5035507;28;20021;-86
2021/06/24 09:23:30;;;;;;;3.20;1.85;;;26.80;51.40;;;;;;5040768;28;20092;-86
2021/06/24 09:26:13;;;;;;;4.18;1.77;;;26.90;51.30;;;;;;5025703;28;20116;-86
2021/06/24 09:28:45;;;;;;;2.20;1.60;;;27.00;50.90;;;;;;5035363;28;20082;-86
2021/06/24 09:31:25;;;;;;;5.72;1.83;;;27.00;51.00;;;;;;5031209;28;20461;-86
2021/06/24 09:33:52;;;;;;;4.50;2.03;;;27.10;50.90;;;;;;5051147;28;20029;-86
2021/06/24 09:36:38;;;;;;;6.10;2.72;;;27.20;50.90;;;;;;5036198;28;20112;-86
2021/06/24 09:39:10;;;;;;;2.22;1.70;;;27.20;50.50;;;;;;5015060;28;20048;-86
2021/06/24 09:41:36;;;;;;;3.75;1.70;;;27.20;50.40;;;;;;5032768;28;20083;-86
2021/06/24 09:44:32;;;;;;;1.65;1.42;;;27.20;50.20;;;;;;5015174;28;20445;-86
2021/06/24 09:47:01;;;;;;;2.35;1.40;;;27.20;49.90;;;;;;5013004;28;20033;-86
2021/06/24 09:49:34;;;;;;;4.22;2.05;;;27.30;49.70;;;;;;5035822;28;20059;-86
2021/06/24 09:52:03;;;;;;;3.13;1.10;;;27.40;49.40;;;;;;5034538;28;20074;-86
2021/06/24 09:54:43;;;;;;;1.88;1.42;;;27.40;49.00;;;;;;5033881;28;20041;-86
2021/06/24 09:57:21;;;;;;;4.10;1.85;;;27.40;49.00;;;;;;5033066;28;20025;-86
2021/06/24 09:59:49;;;;;;;4.97;1.10;;;27.50;49.30;;;;;;5037544;28;20128;-86
2021/06/24 10:02:16;;;;;;;1.48;1.38;;;27.50;49.30;;;;;;5032645;28;20029;-86
2021/06/24 10:04:46;;;;;;;2.13;1.80;;;27.60;49.00;;;;;;5033361;28;20037;-86
2021/06/24 10:07:18;;;;;;;3.63;1.48;;;27.70;49.10;;;;;;5033901;28;20021;-86
2021/06/24 10:09:45;;;;;;;1.90;1.30;;;27.80;48.90;;;;;;5036657;28;20086;-86
2021/06/24 10:12:19;;;;;;;4.07;1.40;;;27.80;48.80;;;;;;5034167;28;20036;-86
2021/06/24 10:14:47;;;;;;;2.08;1.42;;;27.90;48.50;;;;;;5034525;28;20037;-86
2021/06/24 10:17:13;;;;;;;3.35;1.25;;;27.90;48.50;;;;;;5034866;28;20481;-87
2021/06/24 10:19:40;;;;;;;5.78;1.23;;;27.90;48.30;;;;;;5053915;28;20104;-86
2021/06/24 10:22:28;;;;;;;3.95;1.00;;;28.00;48.30;;;;;;5032532;28;20044;-86
2021/06/24 10:25:12;;;;;;;3.13;1.30;;;28.00;48.00;;;;;;5032552;28;20036;-86
2021/06/24 10:27:45;;;;;;;4.00;1.50;;;28.10;47.90;;;;;;5032121;28;20425;-86
2021/06/24 10:30:17;;;;;;;1.48;1.00;;;28.10;47.60;;;;;;5033698;28;20096;-87
2021/06/24 10:32:56;;;;;;;2.13;0.95;;;28.10;47.50;;;;;;5052382;28;20055;-87
2021/06/24 10:35:29;;;;;;;4.00;1.27;;;28.10;47.30;;;;;;5034177;28;20036;-85
2021/06/24 10:37:55;;;;;;;1.88;1.35;;;28.10;47.40;;;;;;5034278;28;20033;-85
2021/06/24 10:40:26;;;;;;;1.83;1.10;;;28.10;47.20;;;;;;5035741;28;20029;-85
2021/06/24 10:42:54;;;;;;;1.73;1.08;;;28.20;47.40;;;;;;5038918;28;20059;-86
2021/06/24 10:45:20;;;;;;;1.48;1.13;;;28.20;47.20;;;;;;5037584;28;20116;-85
2021/06/24 10:47:46;;;;;;;2.40;1.00;;;28.30;47.10;;;;;;5032544;28;20052;-86
2021/06/24 10:50:29;;;;;;;1.45;0.90;;;28.20;47.00;;;;;;5037294;28;20072;-86
2021/06/24 10:53:18;;;;;;;4.50;1.27;;;28.30;46.90;;;;;;5035148;28;20025;-86
2021/06/24 10:55:47;;;;;;;2.08;1.17;;;28.40;46.80;;;;;;5053182;28;20042;-86
2021/06/24 10:58:13;;;;;;;2.95;1.45;;;28.20;46.60;;;;;;5037148;28;20460;-86
2021/06/24 11:00:52;;;;;;;1.80;1.17;;;28.20;46.90;;;;;;5041420;28;20090;-87
2021/06/24 11:03:25;;;;;;;1.63;1.25;;;28.30;46.90;;;;;;5062304;28;20013;-86
2021/06/24 11:05:53;;;;;;;3.20;1.30;;;28.40;46.50;;;;;;5062513;28;20016;-86
2021/06/24 11:08:27;;;;;;;3.55;1.20;;;28.40;46.40;;;;;;5049544;28;20021;-86
2021/06/24 11:10:53;;;;;;;2.90;1.05;;;28.50;46.60;;;;;;5039742;28;20028;-86
2021/06/24 11:13:50;;;;;;;2.08;1.30;;;28.60;46.70;;;;;;5039903;28;20053;-86
2021/06/24 11:16:16;;;;;;;5.05;1.48;;;28.60;46.60;;;;;;5013616;28;20445;-86
2021/06/24 11:18:53;;;;;;;5.72;1.20;;;28.70;46.10;;;;;;5053557;28;20025;-86
2021/06/24 11:21:28;;;;;;;3.08;1.20;;;28.70;46.20;;;;;;5040988;28;20093;-86
2021/06/24 11:23:59;;;;;;;2.05;1.15;;;28.80;46.40;;;;;;5038367;28;20029;-86
2021/06/24 11:26:24;;;;;;;1.75;1.20;;;28.80;46.40;;;;;;5038246;28;20048;-86
2021/06/24 11:29:09;;;;;;;2.80;1.52;;;28.90;46.50;;;;;;5043458;28;20064;-86
2021/06/24 11:31:39;;;;;;;2.13;1.20;;;29.00;46.40;;;;;;5020682;28;20049;-86
2021/06/24 11:34:27;;;;;;;3.55;1.20;;;29.10;46.40;;;;;;5035704;28;20035;-86
2021/06/24 11:37:01;;;;;;;2.22;1.35;;;29.10;46.30;;;;;;5054692;28;20028;-86
2021/06/24 11:39:35;;;;;;;5.47;1.30;;;29.10;46.30;;;;;;5035276;28;20725;-86
2021/06/24 11:42:15;;;;;;;2.42;1.20;;;29.10;46.30;;;;;;5038435;28;20037;-86
2021/06/24 11:44:50;;;;;;;3.85;1.27;;;29.20;46.10;;;;;;5036984;28;20025;-87
2021/06/24 11:47:22;;;;;;;3.28;1.23;;;29.20;46.30;;;;;;5037177;28;20057;-87
2021/06/24 12:04:04;;;;;;;4.07;1.23;;;29.50;46.50;;;;;;5054444;28;20428;-86
2021/06/24 12:06:48;;;;;;;2.17;1.38;;;29.50;46.70;;;;;;5037395;28;20036;-86
2021/06/24 12:09:20;;;;;;;4.43;1.40;;;29.60;46.50;;;;;;5036961;28;20031;-86
2021/06/24 12:11:47;;;;;;;3.30;1.30;;;29.50;46.70;;;;;;5036973;28;20465;-87
2021/06/24 12:14:20;;;;;;;4.40;1.25;;;29.60;46.60;;;;;;5036337;28;20033;-86
2021/06/24 12:17:08;;;;;;;3.78;1.40;;;29.60;46.60;;;;;;5034537;28;20029;-86
2021/06/24 12:20:01;;;;;;;4.75;1.50;;;29.60;46.80;;;;;;5033631;28;20036;-86
2021/06/24 12:22:34;;;;;;;2.90;1.30;;;29.60;46.70;;;;;;5031691;28;20048;-86
2021/06/24 12:25:00;;;;;;;1.85;1.17;;;29.60;46.60;;;;;;5035960;28;20025;-87
2021/06/24 12:27:33;;;;;;;2.10;1.30;;;29.60;46.40;;;;;;5054645;28;20033;-86
2021/06/24 12:30:05;;;;;;;5.78;1.38;;;29.50;46.10;;;;;;5055250;28;20017;-87
2021/06/24 12:32:31;;;;;;;2.95;1.42;;;29.50;46.40;;;;;;5067622;28;20063;-86
2021/06/24 12:34:58;;;;;;;6.25;1.58;;;29.60;46.40;;;;;;5033586;28;20465;-86
2021/06/24 12:37:41;;;;;;;2.67;1.25;;;29.60;46.60;;;;;;5053622;28;20432;-86
2021/06/24 12:40:12;;;;;;;5.18;1.20;;;29.60;46.80;;;;;;5068120;28;20470;-86
2021/06/24 12:42:50;;;;;;;3.33;1.20;;;29.70;46.90;;;;;;5040135;28;20501;-86
2021/06/24 12:45:18;;;;;;;5.25;1.35;;;29.70;46.80;;;;;;5050237;28;20025;-86
2021/06/24 12:47:45;;;;;;;1.77;1.38;;;29.70;46.80;;;;;;5037399;28;20064;-86
2021/06/24 12:50:16;;;;;;;4.65;1.70;;;29.70;46.60;;;;;;5035657;28;20025;-86
2021/06/24 12:53:08;;;;;;;5.95;1.40;;;29.60;47.10;;;;;;5027275;28;20025;-86
2021/06/24 12:55:45;;;;;;;5.20;1.38;;;29.70;47.00;;;;;;5028186;28;20037;-87
2021/06/24 12:58:21;;;;;;;1.70;1.00;;;29.70;47.00;;;;;;5036497;28;20477;-86
2021/06/24 13:01:16;;;;;;;5.28;1.17;;;29.60;46.70;;;;;;5034834;28;20028;-86
2021/06/24 13:03:56;;;;;;;4.93;1.10;;;29.60;47.00;;;;;;5052201;28;20013;-86
2021/06/24 13:06:25;;;;;;;1.50;1.10;;;29.60;46.70;;;;;;5034768;28;20052;-86
2021/06/24 13:08:55;;;;;;;2.53;1.10;;;29.30;46.90;;;;;;5034649;28;20534;-86
2021/06/24 13:11:23;;;;;;;5.53;1.23;;;29.30;47.00;;;;;;5036429;28;20078;-86
2021/06/24 13:13:58;;;;;;;2.38;1.20;;;29.40;46.80;;;;;;5035443;28;20025;-87
2021/06/24 13:16:31;;;;;;;1.38;0.98;;;29.50;46.90;;;;;;5024455;28;20044;-86
2021/06/24 13:19:04;;;;;;;8.00;1.00;;;29.60;46.90;;;;;;5030662;28;20846;-87
2021/06/24 13:21:30;;;;;;;2.83;1.10;;;29.60;46.60;;;;;;5032059;28;20017;-87
2021/06/24 13:24:07;;;;;;;1.65;1.00;;;29.50;46.40;;;;;;5040977;28;20034;-86
2021/06/24 13:26:33;;;;;;;5.63;1.15;;;29.50;46.50;;;;;;5035665;28;20385;-86
2021/06/24 13:29:00;;;;;;;5.25;1.00;;;29.60;46.70;;;;;;5032776;28;20108;-86
2021/06/24 13:31:29;;;;;;;5.65;1.20;;;29.70;46.50;;;;;;5016770;28;20041;-87
2021/06/24 13:34:07;;;;;;;4.10;1.38;;;29.70;46.20;;;;;;5028006;28;20025;-87
2021/06/24 13:36:33;;;;;;;1.05;0.80;;;29.70;45.70;;;;;;5035599;28;20394;-86
2021/06/24 13:39:02;;;;;;;1.58;1.27;;;29.70;45.70;;;;;;5015904;28;20024;-86
2021/06/24 13:41:31;;;;;;;1.45;1.20;;;29.70;45.50;;;;;;5049567;28;20032;-86
2021/06/24 13:44:14;;;;;;;3.92;1.20;;;29.80;45.40;;;;;;5034762;28;20074;-86
2021/06/24 13:46:46;;;;;;;1.70;1.00;;;29.90;45.20;;;;;;5052460;28;20071;-86
2021/06/24 13:49:13;;;;;;;1.08;0.98;;;29.80;44.90;;;;;;5035009;28;20052;-86
2021/06/24 13:51:45;;;;;;;1.00;0.68;;;29.70;45.10;;;;;;5036042;28;20032;-86
2021/06/24 13:54:12;;;;;;;1.10;0.80;;;29.70;45.20;;;;;;5018292;28;20059;-86
2021/06/24 13:56:38;;;;;;;5.82;0.98;;;29.70;45.20;;;;;;5028625;28;20036;-87
2021/06/24 13:59:05;;;;;;;2.92;1.00;;;29.70;45.10;;;;;;5056691;28;20477;-86
2021/06/24 14:01:31;;;;;;;3.83;0.90;;;29.60;45.10;;;;;;5034494;28;20075;-86